createdAt,value
2023-06-21T00:00:24.311Z,5.25
2023-06-21T00:03:13.075Z,4.90
2023-06-21T00:06:00.836Z,5.22
2023-06-21T00:08:49.837Z,5.40
2023-06-21T00:11:37.564Z,5.80
2023-06-21T00:14:26.110Z,5.72
2023-06-21T00:17:13.771Z,5.65
2023-06-21T00:20:01.394Z,4.80
2023-06-21T00:22:49.232Z,4.75
2023-06-21T00:25:39.429Z,4.82
2023-06-21T00:28:27.355Z,5.13
2023-06-21T00:31:14.979Z,5.25
2023-06-21T00:34:02.494Z,4.95
2023-06-21T00:36:50.004Z,6.03
2023-06-21T00:39:37.534Z,5.35
2023-06-21T00:42:25.329Z,5.75
2023-06-21T00:45:17.020Z,5.85
2023-06-21T00:48:05.179Z,5.40
2023-06-21T00:50:52.827Z,5.88
2023-06-21T00:53:41.723Z,5.75
2023-06-21T00:56:29.822Z,4.82
2023-06-21T00:59:17.370Z,5.40
2023-06-21T01:02:06.696Z,6.60
2023-06-21T01:04:54.813Z,6.68
2023-06-21T01:07:56.618Z,5.70
2023-06-21T01:10:53.444Z,5.80
2023-06-21T01:14:19.404Z,6.05
2023-06-21T01:17:11.086Z,6.70
2023-06-21T01:19:59.912Z,5.43
2023-06-21T01:23:00.536Z,6.45
2023-06-21T01:25:53.876Z,5.10
2023-06-21T01:29:07.759Z,5.70
2023-06-21T01:31:59.247Z,5.68
2023-06-21T01:34:47.748Z,6.47
2023-06-21T01:37:36.131Z,4.95
2023-06-21T01:40:23.671Z,5.90
2023-06-21T01:43:12.352Z,5.60
2023-06-21T01:46:03.334Z,4.82
2023-06-21T01:48:53.455Z,5.95
2023-06-21T01:51:43.488Z,5.25
2023-06-21T01:54:31.307Z,5.68
2023-06-21T01:57:21.378Z,5.40
2023-06-21T02:00:17.950Z,4.95
2023-06-21T02:03:11.246Z,5.07
2023-06-21T02:06:04.838Z,6.20
2023-06-21T02:08:54.335Z,5.47
2023-06-21T02:11:42.763Z,5.32
2023-06-21T02:14:30.503Z,5.97
2023-06-21T02:17:18.400Z,5.55
2023-06-21T02:20:12.763Z,4.60
2023-06-21T02:23:00.390Z,5.53
2023-06-21T02:25:48.044Z,5.28
2023-06-21T02:28:35.524Z,5.07
2023-06-21T02:31:23.164Z,5.90
2023-06-21T02:34:10.783Z,5.45
2023-06-21T02:36:58.445Z,4.53
2023-06-21T02:39:46.004Z,5.30
2023-06-21T02:42:33.854Z,4.97
2023-06-21T02:45:21.554Z,4.80
2023-06-21T02:48:09.171Z,6.15
2023-06-21T02:50:57.594Z,5.15
2023-06-21T02:53:45.041Z,5.15
2023-06-21T02:56:32.512Z,4.93
2023-06-21T02:59:20.018Z,5.80
2023-06-21T03:02:07.554Z,6.30
2023-06-21T03:04:55.457Z,6.60
2023-06-21T03:07:46.077Z,6.07
2023-06-21T03:10:34.468Z,5.75
2023-06-21T03:13:21.987Z,5.25
2023-06-21T03:16:10.119Z,4.95
2023-06-21T03:18:57.786Z,6.32
2023-06-21T03:21:45.517Z,5.63
2023-06-21T03:24:34.132Z,5.32
2023-06-21T03:27:21.759Z,5.50
2023-06-21T03:30:13.086Z,5.05
2023-06-21T03:33:01.191Z,6.45
2023-06-21T03:35:48.903Z,4.80
2023-06-21T03:38:36.518Z,5.82
2023-06-21T03:41:24.143Z,5.10
2023-06-21T03:44:11.678Z,4.43
2023-06-21T03:47:00.253Z,5.63
2023-06-21T03:49:47.770Z,5.25
2023-06-21T03:52:35.551Z,5.43
2023-06-21T03:55:23.255Z,5.40
2023-06-21T03:58:12.888Z,4.95
2023-06-21T04:01:00.407Z,5.45
2023-06-21T04:03:48.706Z,5.63
2023-06-21T04:06:36.255Z,5.22
2023-06-21T04:09:24.426Z,5.30
2023-06-21T04:12:12.849Z,5.90
2023-06-21T04:15:04.871Z,5.53
2023-06-21T04:17:52.455Z,5.30
2023-06-21T04:20:40.158Z,4.97
2023-06-21T04:23:27.606Z,5.70
2023-06-21T04:26:15.123Z,5.28
2023-06-21T04:29:02.610Z,4.25
2023-06-21T04:31:54.110Z,5.13
2023-06-21T04:34:44.795Z,4.30
2023-06-21T04:37:32.426Z,4.40
2023-06-21T04:40:25.529Z,4.95
2023-06-21T04:43:14.714Z,3.45
2023-06-21T04:46:04.741Z,5.18
2023-06-21T04:48:52.279Z,5.10
2023-06-21T04:51:39.850Z,4.45
2023-06-21T04:54:28.049Z,4.85
2023-06-21T04:57:17.630Z,5.00
2023-06-21T05:00:08.692Z,6.25
2023-06-21T05:02:56.393Z,4.75
2023-06-21T05:05:44.231Z,5.80
2023-06-21T05:08:31.719Z,4.93
2023-06-21T05:11:22.731Z,4.78
2023-06-21T05:14:10.340Z,6.03
2023-06-21T05:16:57.889Z,5.63
2023-06-21T05:19:45.406Z,5.88
2023-06-21T05:22:33.289Z,5.50
2023-06-21T05:25:21.247Z,6.30
2023-06-21T05:28:08.918Z,6.22
2023-06-21T05:30:56.544Z,6.85
2023-06-21T05:33:44.107Z,6.72
2023-06-21T05:36:31.673Z,7.15
2023-06-21T05:39:19.267Z,6.15
2023-06-21T05:42:07.052Z,6.57
2023-06-21T05:44:56.023Z,5.50
2023-06-21T05:47:43.505Z,6.85
2023-06-21T05:50:31.973Z,7.22
2023-06-21T05:53:19.439Z,6.22
2023-06-21T05:56:06.979Z,5.95
2023-06-21T05:58:55.195Z,7.28
2023-06-21T06:01:42.754Z,5.60
2023-06-21T06:04:30.377Z,5.47
2023-06-21T06:07:20.377Z,6.00
2023-06-21T06:10:08.569Z,6.40
2023-06-21T06:12:56.152Z,5.30
2023-06-21T06:15:43.710Z,5.28
2023-06-21T06:18:31.282Z,5.75
2023-06-21T06:21:22.791Z,4.30
2023-06-21T06:24:10.458Z,4.75
2023-06-21T06:26:59.633Z,4.43
2023-06-21T06:29:47.246Z,5.18
2023-06-21T06:32:34.939Z,5.00
2023-06-21T06:35:22.475Z,3.92
2023-06-21T06:38:10.063Z,4.38
2023-06-21T06:40:57.611Z,4.85
2023-06-21T06:43:46.332Z,5.07
2023-06-21T06:46:35.204Z,4.72
2023-06-21T06:49:23.267Z,4.72
2023-06-21T06:52:13.365Z,4.82
2023-06-21T06:55:01.140Z,4.50
2023-06-21T06:58:00.449Z,4.78
2023-06-21T07:00:53.034Z,5.38
2023-06-21T07:03:40.649Z,4.72
2023-06-21T07:06:28.167Z,3.40
2023-06-21T07:09:15.852Z,4.30
2023-06-21T07:12:03.861Z,4.18
2023-06-21T07:14:51.434Z,4.63
2023-06-21T07:17:39.057Z,4.38
2023-06-21T07:20:27.112Z,4.70
2023-06-21T07:23:15.373Z,4.25
2023-06-21T07:26:04.208Z,4.45
2023-06-21T07:28:51.938Z,4.07
2023-06-21T07:31:39.635Z,3.90
2023-06-21T07:34:27.259Z,3.58
2023-06-21T07:37:14.807Z,3.80
2023-06-21T07:40:03.009Z,3.75
2023-06-21T07:42:51.275Z,4.03
2023-06-21T07:45:39.130Z,5.35
2023-06-21T07:48:27.647Z,4.32
2023-06-21T07:51:15.161Z,5.43
2023-06-21T07:54:02.631Z,4.47
2023-06-21T07:56:50.154Z,5.22
2023-06-21T07:59:37.806Z,4.85
2023-06-21T08:02:25.452Z,4.40
2023-06-21T08:05:14.927Z,4.03
2023-06-21T08:08:03.674Z,3.85
2023-06-21T08:10:51.262Z,4.57
2023-06-21T08:13:38.809Z,5.18
2023-06-21T08:16:26.383Z,4.38
2023-06-21T08:19:13.908Z,3.63
2023-06-21T08:22:01.526Z,4.15
2023-06-21T08:24:49.305Z,4.53
2023-06-21T08:27:38.218Z,4.50
2023-06-21T08:30:27.606Z,4.70
2023-06-21T08:33:15.321Z,4.25
2023-06-21T08:36:03.179Z,4.50
2023-06-21T08:38:50.719Z,5.10
2023-06-21T08:41:41.243Z,4.43
2023-06-21T08:44:28.895Z,4.07
2023-06-21T08:47:18.176Z,4.35
2023-06-21T08:50:06.789Z,4.38
2023-06-21T08:52:58.585Z,5.22
2023-06-21T08:55:47.339Z,5.78
2023-06-21T08:58:45.448Z,4.97
2023-06-21T09:01:46.267Z,5.35
2023-06-21T09:04:46.673Z,5.32
2023-06-21T09:07:36.562Z,6.40
2023-06-21T09:10:28.114Z,5.88
2023-06-21T09:13:16.567Z,4.93
2023-06-21T09:16:04.579Z,6.15
2023-06-21T09:18:52.514Z,4.90
2023-06-21T09:21:44.253Z,5.15
2023-06-21T09:24:31.920Z,5.13
2023-06-21T09:27:19.566Z,5.57
2023-06-21T09:30:29.759Z,5.03
2023-06-21T09:33:16.361Z,5.60
2023-06-21T09:36:09.907Z,5.32
2023-06-21T09:39:12.083Z,4.97
2023-06-21T09:41:59.734Z,5.78
2023-06-21T09:44:47.555Z,4.90
2023-06-21T09:47:35.270Z,6.20
2023-06-21T09:50:22.854Z,5.88
2023-06-21T09:53:21.468Z,5.93
2023-06-21T09:56:09.052Z,5.57
2023-06-21T09:58:56.626Z,5.45
2023-06-21T10:01:46.476Z,6.35
2023-06-21T10:04:43.296Z,5.60
2023-06-21T10:07:31.092Z,5.78
2023-06-21T10:10:20.918Z,5.22
2023-06-21T10:13:08.423Z,5.40
2023-06-21T10:15:57.878Z,5.05
2023-06-21T10:18:45.430Z,5.38
2023-06-21T10:21:35.328Z,5.38
2023-06-21T10:24:26.800Z,4.72
2023-06-21T10:27:16.304Z,4.82
2023-06-21T10:30:06.024Z,5.68
2023-06-21T10:32:58.379Z,5.00
2023-06-21T10:35:49.678Z,4.40
2023-06-21T10:38:50.016Z,4.85
2023-06-21T10:41:40.211Z,4.90
2023-06-21T10:44:32.183Z,4.82
2023-06-21T10:47:21.856Z,5.90
2023-06-21T10:50:12.379Z,4.95
2023-06-21T10:53:00.656Z,5.03
2023-06-21T10:55:49.619Z,4.05
2023-06-21T10:58:37.473Z,4.88
2023-06-21T11:01:25.762Z,4.60
2023-06-21T11:04:13.342Z,4.65
2023-06-21T11:07:02.026Z,3.92
2023-06-21T11:09:53.973Z,3.50
2023-06-21T11:12:41.825Z,4.22
2023-06-21T11:15:29.561Z,4.63
2023-06-21T11:18:20.700Z,4.40
2023-06-21T11:21:08.577Z,3.97
2023-06-21T11:23:57.193Z,3.40
2023-06-21T11:27:08.037Z,3.95
2023-06-21T11:30:02.093Z,4.53
2023-06-21T11:32:59.309Z,4.68
2023-06-21T11:35:51.515Z,4.72
2023-06-21T11:38:48.450Z,3.92
2023-06-21T11:41:46.474Z,3.50
2023-06-21T11:44:38.357Z,3.95
2023-06-21T11:47:25.889Z,3.53
2023-06-21T11:50:15.477Z,3.35
2023-06-21T11:53:23.562Z,3.42
2023-06-21T11:56:15.326Z,2.90
2023-06-21T11:59:08.744Z,3.60
2023-06-21T12:01:56.318Z,3.55
2023-06-21T12:04:45.539Z,3.63
2023-06-21T12:07:33.289Z,3.17
2023-06-21T12:10:20.786Z,2.92
2023-06-21T12:13:09.838Z,3.40
2023-06-21T12:16:04.965Z,3.38
2023-06-21T12:18:52.567Z,2.95
2023-06-21T12:21:40.728Z,3.53
2023-06-21T12:24:33.689Z,3.75
2023-06-21T12:27:21.465Z,3.50
2023-06-21T12:30:09.974Z,3.15
2023-06-21T12:32:57.961Z,3.58
2023-06-21T12:35:46.163Z,3.10
2023-06-21T12:38:36.949Z,3.78
2023-06-21T12:41:28.045Z,3.60
2023-06-21T12:44:25.344Z,3.67
2023-06-21T12:47:13.398Z,3.92
2023-06-21T12:50:03.870Z,3.78
2023-06-21T12:53:02.366Z,3.42
2023-06-21T12:55:49.971Z,3.38
2023-06-21T12:58:39.206Z,3.35
2023-06-21T13:01:29.407Z,3.75
2023-06-21T13:04:19.232Z,3.08
2023-06-21T13:07:07.094Z,2.88
2023-06-21T13:09:54.856Z,3.88
2023-06-21T13:12:42.318Z,3.95
2023-06-21T13:15:29.865Z,2.60
2023-06-21T13:18:20.662Z,3.78
2023-06-21T13:21:08.226Z,3.83
2023-06-21T13:23:56.050Z,4.60
2023-06-21T13:26:43.884Z,5.40
2023-06-21T13:29:31.468Z,5.00
2023-06-21T13:32:19.003Z,4.00
2023-06-21T13:35:10.620Z,4.82
2023-06-21T13:37:58.194Z,4.53
2023-06-21T13:40:46.532Z,4.28
2023-06-21T13:43:34.282Z,3.90
2023-06-21T13:46:21.800Z,4.28
2023-06-21T13:49:09.362Z,3.47
2023-06-21T13:51:56.994Z,4.22
2023-06-21T13:54:44.972Z,3.92
2023-06-21T13:57:32.538Z,4.65
2023-06-21T14:00:21.831Z,4.00
2023-06-21T14:03:09.474Z,4.43
2023-06-21T14:05:57.144Z,4.53
2023-06-21T14:08:44.674Z,4.53
2023-06-21T14:11:33.218Z,4.35
2023-06-21T14:14:20.723Z,3.92
2023-06-21T14:17:08.919Z,5.00
2023-06-21T14:19:58.668Z,4.57
2023-06-21T14:22:46.203Z,3.90
2023-06-21T14:25:33.866Z,3.88
2023-06-21T14:28:21.744Z,4.13
2023-06-21T14:31:09.350Z,5.35
2023-06-21T14:33:57.219Z,3.85
2023-06-21T14:36:44.877Z,2.97
2023-06-21T14:39:32.503Z,3.17
2023-06-21T14:42:20.198Z,3.22
2023-06-21T14:45:08.573Z,2.92
2023-06-21T14:47:56.297Z,2.50
2023-06-21T14:50:44.013Z,2.90
2023-06-21T14:53:33.583Z,2.90
2023-06-21T14:56:21.133Z,2.65
2023-06-21T14:59:08.619Z,2.38
2023-06-21T15:01:56.433Z,2.63
2023-06-21T15:04:44.007Z,3.53
2023-06-21T15:07:31.518Z,2.28
2023-06-21T15:10:19.184Z,2.63
2023-06-21T15:13:06.676Z,2.75
2023-06-21T15:15:54.242Z,2.38
2023-06-21T15:18:41.773Z,2.83
2023-06-21T15:21:29.319Z,2.60
2023-06-21T15:24:16.954Z,2.53
2023-06-21T15:27:04.809Z,2.67
2023-06-21T15:29:52.389Z,2.63
2023-06-21T15:32:39.954Z,2.60
2023-06-21T15:35:27.709Z,2.63
2023-06-21T15:38:15.465Z,2.20
2023-06-21T15:41:02.945Z,2.60
2023-06-21T15:43:50.503Z,2.10
2023-06-21T15:46:38.111Z,2.10
2023-06-21T15:49:26.489Z,3.10
2023-06-21T15:52:14.562Z,2.30
2023-06-21T15:55:02.116Z,3.00
2023-06-21T15:57:50.285Z,2.40
2023-06-21T16:00:38.278Z,2.38
2023-06-21T16:03:27.737Z,2.47
2023-06-21T16:06:18.344Z,2.60
2023-06-21T16:09:05.902Z,2.67
2023-06-21T16:11:53.456Z,2.63
2023-06-21T16:14:40.900Z,1.85
2023-06-21T16:17:28.608Z,3.05
2023-06-21T16:20:16.279Z,2.75
2023-06-21T16:23:03.886Z,2.97
2023-06-21T16:25:52.906Z,2.97
2023-06-21T16:28:40.579Z,2.80
2023-06-21T16:31:28.526Z,3.17
2023-06-21T16:34:16.299Z,3.13
2023-06-21T16:37:03.936Z,2.75
2023-06-21T16:39:52.227Z,2.28
2023-06-21T16:42:39.688Z,2.75
2023-06-21T16:45:27.606Z,3.08
2023-06-21T16:48:15.895Z,3.08
2023-06-21T16:51:03.813Z,2.95
2023-06-21T16:53:51.337Z,2.63
2023-06-21T16:56:39.530Z,2.70
2023-06-21T16:59:27.015Z,2.22
2023-06-21T17:02:14.647Z,2.50
2023-06-21T17:05:02.196Z,2.38
2023-06-21T17:07:50.939Z,2.38
2023-06-21T17:10:38.516Z,2.88
2023-06-21T17:13:26.106Z,1.98
2023-06-21T17:16:13.677Z,1.80
2023-06-21T17:19:01.766Z,2.33
2023-06-21T17:21:49.331Z,1.98
2023-06-21T17:24:36.894Z,2.78
2023-06-21T17:27:24.509Z,2.05
2023-06-21T17:30:12.760Z,2.15
2023-06-21T17:33:00.971Z,1.92
2023-06-21T17:35:50.325Z,2.50
2023-06-21T17:38:37.914Z,2.38
2023-06-21T17:41:25.431Z,2.13
2023-06-21T17:44:13.161Z,2.70
2023-06-21T17:47:01.708Z,2.20
2023-06-21T17:49:49.201Z,1.67
2023-06-21T17:52:37.179Z,2.70
2023-06-21T17:55:25.076Z,1.77
2023-06-21T17:58:12.841Z,2.50
2023-06-21T18:01:00.521Z,1.98
2023-06-21T18:03:48.552Z,2.10
2023-06-21T18:06:36.068Z,1.58
2023-06-21T18:09:23.763Z,1.98
2023-06-21T18:12:12.356Z,2.10
2023-06-21T18:15:00.143Z,2.20
2023-06-21T18:17:47.653Z,1.85
2023-06-21T18:20:35.303Z,1.40
2023-06-21T18:23:22.870Z,2.42
2023-06-21T18:26:12.820Z,1.70
2023-06-21T18:29:00.573Z,1.88
2023-06-21T18:31:48.171Z,1.70
2023-06-21T18:34:35.658Z,1.80
2023-06-21T18:37:23.554Z,1.70
2023-06-21T18:40:11.657Z,1.60
2023-06-21T18:42:59.262Z,1.60
2023-06-21T18:45:46.742Z,1.70
2023-06-21T18:48:34.376Z,1.40
2023-06-21T18:51:28.160Z,3.65
2023-06-21T18:54:15.763Z,1.50
2023-06-21T18:57:03.447Z,2.05
2023-06-21T18:59:51.036Z,1.52
2023-06-21T19:02:38.819Z,1.35
2023-06-21T19:05:26.525Z,1.08
2023-06-21T19:08:14.148Z,1.67
2023-06-21T19:11:01.664Z,1.80
2023-06-21T19:13:51.837Z,1.98
2023-06-21T19:16:39.471Z,2.22
2023-06-21T19:19:26.943Z,1.50
2023-06-21T19:22:15.046Z,1.83
2023-06-21T19:25:02.571Z,1.42
2023-06-21T19:27:50.267Z,1.50
2023-06-21T19:30:39.137Z,1.52
2023-06-21T19:33:26.691Z,1.88
2023-06-21T19:36:14.309Z,1.92
2023-06-21T19:39:01.845Z,1.50
2023-06-21T19:41:49.395Z,1.38
2023-06-21T19:44:37.114Z,2.03
2023-06-21T19:47:26.104Z,1.40
2023-06-21T19:50:13.719Z,1.42
2023-06-21T19:53:01.855Z,1.73
2023-06-21T19:55:49.339Z,1.95
2023-06-21T19:58:36.851Z,1.50
2023-06-21T20:01:24.865Z,2.22
2023-06-21T20:04:12.567Z,1.60
2023-06-21T20:07:00.171Z,2.60
2023-06-21T20:09:47.740Z,2.40
2023-06-21T20:12:35.226Z,1.95
2023-06-21T20:15:22.850Z,2.65
2023-06-21T20:18:10.840Z,2.25
2023-06-21T20:20:58.418Z,2.45
2023-06-21T20:23:45.984Z,2.40
2023-06-21T20:26:33.447Z,2.50
2023-06-21T20:29:21.291Z,1.85
2023-06-21T20:32:10.053Z,2.58
2023-06-21T20:34:57.551Z,2.38
2023-06-21T20:37:45.188Z,2.63
2023-06-21T20:40:33.153Z,2.80
2023-06-21T20:43:20.687Z,2.80
2023-06-21T20:46:09.855Z,2.38
2023-06-21T20:48:59.786Z,3.15
2023-06-21T20:51:47.301Z,3.33
2023-06-21T20:54:35.223Z,3.20
2023-06-21T20:57:22.717Z,3.78
2023-06-21T21:00:12.393Z,5.65
2023-06-21T21:02:59.976Z,7.45
2023-06-21T21:05:50.069Z,6.93
2023-06-21T21:08:39.788Z,6.18
2023-06-21T21:11:27.934Z,5.75
2023-06-21T21:14:15.533Z,4.70
2023-06-21T21:17:03.301Z,4.22
2023-06-21T21:19:51.087Z,3.58
2023-06-21T21:22:38.660Z,3.65
2023-06-21T21:25:26.685Z,3.92
2023-06-21T21:28:15.575Z,3.90
2023-06-21T21:31:05.952Z,4.07
2023-06-21T21:33:53.660Z,3.83
2023-06-21T21:36:41.139Z,3.70
2023-06-21T21:39:28.711Z,3.72
2023-06-21T21:42:16.170Z,3.95
2023-06-21T21:45:05.112Z,3.42
2023-06-21T21:47:52.710Z,4.65
2023-06-21T21:50:40.420Z,3.53
2023-06-21T21:53:28.187Z,3.50
2023-06-21T21:56:15.950Z,4.28
2023-06-21T21:59:03.472Z,4.13
2023-06-21T22:01:51.059Z,3.63
2023-06-21T22:04:38.828Z,3.97
2023-06-21T22:07:26.467Z,3.72
2023-06-21T22:10:31.727Z,4.05
2023-06-21T22:13:21.515Z,3.58
2023-06-21T22:16:09.946Z,4.10
2023-06-21T22:18:58.275Z,3.90
2023-06-21T22:21:53.760Z,3.80
2023-06-21T22:24:41.604Z,3.50
2023-06-21T22:27:29.058Z,3.35
2023-06-21T22:30:17.020Z,3.35
2023-06-21T22:33:04.802Z,3.03
2023-06-21T22:35:52.382Z,2.63
2023-06-21T22:38:39.934Z,2.65
2023-06-21T22:41:28.264Z,2.83
2023-06-21T22:44:15.850Z,2.20
2023-06-21T22:47:03.412Z,2.58
2023-06-21T22:49:51.054Z,2.97
2023-06-21T22:52:39.174Z,2.65
2023-06-21T22:55:28.092Z,3.25
2023-06-21T22:58:15.603Z,2.80
2023-06-21T23:01:03.976Z,3.15
2023-06-21T23:03:52.453Z,3.70
2023-06-21T23:06:40.233Z,3.75
2023-06-21T23:09:28.627Z,3.65
2023-06-21T23:12:16.085Z,3.70
2023-06-21T23:15:04.677Z,3.65
2023-06-21T23:17:56.058Z,3.83
2023-06-21T23:20:43.741Z,4.35
2023-06-21T23:23:31.266Z,4.38
2023-06-21T23:26:20.871Z,4.43
2023-06-21T23:29:12.653Z,4.20
2023-06-21T23:32:01.778Z,4.53
2023-06-21T23:34:52.184Z,4.70
2023-06-21T23:37:40.833Z,4.85
2023-06-21T23:40:28.557Z,4.95
2023-06-21T23:43:21.324Z,5.43
2023-06-21T23:46:08.969Z,5.22
2023-06-21T23:49:03.880Z,4.82
2023-06-21T23:51:53.948Z,5.45
2023-06-21T23:54:44.375Z,6.15
2023-06-21T23:57:31.901Z,6.70
